createdAt,value
2022-09-14T00:02:56.922Z,4.60
2022-09-14T00:06:08.684Z,4.70
2022-09-14T00:09:20.090Z,5.10
2022-09-14T00:12:25.103Z,3.90
2022-09-14T00:15:28.084Z,5.00
2022-09-14T00:18:31.909Z,4.50
2022-09-14T00:21:39.253Z,5.50
2022-09-14T00:24:42.431Z,4.10
2022-09-14T00:27:45.398Z,4.40
2022-09-14T00:30:50.431Z,3.90
2022-09-14T00:33:54.310Z,4.60
2022-09-14T00:36:57.183Z,5.20
2022-09-14T00:40:00.418Z,4.20
2022-09-14T00:43:04.355Z,4.40
2022-09-14T00:46:07.433Z,4.00
2022-09-14T00:49:18.697Z,4.50
2022-09-14T00:52:31.060Z,4.40
2022-09-14T00:55:34.359Z,4.10
2022-09-14T00:58:38.678Z,4.10
2022-09-14T01:01:41.800Z,4.00
2022-09-14T01:04:45.231Z,4.40
2022-09-14T01:08:25.546Z,4.90
2022-09-14T01:11:53.683Z,3.80
2022-09-14T01:15:05.263Z,3.80
2022-09-14T01:18:21.019Z,3.80
2022-09-14T01:21:32.916Z,4.70
2022-09-14T01:24:35.973Z,5.10
2022-09-14T01:27:44.113Z,4.20
2022-09-14T01:30:50.390Z,4.20
2022-09-14T01:34:09.355Z,3.50
2022-09-14T01:37:17.448Z,4.40
2022-09-14T01:40:33.488Z,5.00
2022-09-14T01:43:44.368Z,4.20
2022-09-14T01:46:53.466Z,4.00
2022-09-14T01:50:04.020Z,3.70
2022-09-14T01:53:09.540Z,4.60
2022-09-14T01:56:39.136Z,4.40
2022-09-14T02:02:50.188Z,3.20
2022-09-14T02:05:57.049Z,3.40
2022-09-14T02:09:00.814Z,4.30
2022-09-14T02:12:04.426Z,4.60
2022-09-14T02:15:11.537Z,3.70
2022-09-14T02:18:21.005Z,3.40
2022-09-14T02:21:27.794Z,3.10
2022-09-14T02:24:30.842Z,4.10
2022-09-14T02:27:33.712Z,4.30
2022-09-14T02:30:50.804Z,3.10
2022-09-14T02:34:09.445Z,3.00
2022-09-14T02:37:28.268Z,2.70
2022-09-14T02:41:04.911Z,3.20
2022-09-14T02:44:08.188Z,3.50
2022-09-14T02:47:22.421Z,2.40
2022-09-14T02:50:43.094Z,2.30
2022-09-14T02:54:07.349Z,2.60
2022-09-14T02:57:11.140Z,3.30
2022-09-14T03:00:14.645Z,3.70
2022-09-14T03:03:21.134Z,3.20
2022-09-14T03:06:24.456Z,2.80
2022-09-14T03:09:27.427Z,3.40
2022-09-14T03:12:30.610Z,4.50
2022-09-14T03:15:33.680Z,3.60
2022-09-14T03:18:37.884Z,3.00
2022-09-14T03:21:41.058Z,2.90
2022-09-14T03:24:44.032Z,3.00
2022-09-14T03:27:51.365Z,3.60
2022-09-14T03:30:54.820Z,3.00
2022-09-14T03:34:00.517Z,2.90
2022-09-14T03:37:04.210Z,2.60
2022-09-14T03:40:09.205Z,3.30
2022-09-14T03:43:13.019Z,3.00
2022-09-14T03:46:21.596Z,2.70
2022-09-14T03:49:24.489Z,2.40
2022-09-14T03:52:27.460Z,2.60
2022-09-14T03:55:30.739Z,2.60
2022-09-14T03:58:33.614Z,3.50
2022-09-14T04:01:38.435Z,2.50
2022-09-14T04:04:41.394Z,2.40
2022-09-14T04:07:44.267Z,2.80
2022-09-14T04:10:47.143Z,2.60
2022-09-14T04:13:51.136Z,3.60
2022-09-14T04:16:54.101Z,2.90
2022-09-14T04:19:56.971Z,2.40
2022-09-14T04:23:00.046Z,2.80
2022-09-14T04:26:11.422Z,2.60
2022-09-14T04:29:14.891Z,2.00
2022-09-14T04:32:18.282Z,2.00
2022-09-14T04:35:21.388Z,2.30
2022-09-14T04:38:24.626Z,2.50
2022-09-14T04:41:31.538Z,2.20
2022-09-14T04:44:36.439Z,1.80
2022-09-14T04:47:39.508Z,1.90
2022-09-14T04:50:43.764Z,2.20
2022-09-14T04:53:50.271Z,2.60
2022-09-14T04:56:53.310Z,1.90
2022-09-14T04:59:56.391Z,1.50
2022-09-14T05:02:59.492Z,1.80
2022-09-14T05:06:04.574Z,2.30
2022-09-14T05:09:13.350Z,2.20
2022-09-14T05:12:16.572Z,1.80
2022-09-14T05:15:19.465Z,1.50
2022-09-14T05:18:50.912Z,2.00
2022-09-14T05:21:53.948Z,1.80
2022-09-14T05:24:56.853Z,1.80
2022-09-14T05:27:59.974Z,1.30
2022-09-14T05:31:07.793Z,2.00
2022-09-14T05:34:11.408Z,1.60
2022-09-14T05:37:14.578Z,1.50
2022-09-14T05:40:18.092Z,1.50
2022-09-14T05:43:23.129Z,1.80
2022-09-14T05:46:26.796Z,1.70
2022-09-14T05:49:29.820Z,1.50
2022-09-14T05:52:32.758Z,1.30
2022-09-14T05:55:35.628Z,1.50
2022-09-14T05:59:09.321Z,1.50
2022-09-14T06:02:21.264Z,1.20
2022-09-14T06:05:25.776Z,1.30
2022-09-14T06:08:29.331Z,1.30
2022-09-14T06:11:36.474Z,1.70
2022-09-14T06:14:41.277Z,1.20
2022-09-14T06:17:44.196Z,1.20
2022-09-14T06:20:52.223Z,1.70
2022-09-14T06:23:56.254Z,1.40
2022-09-14T06:26:59.140Z,1.20
2022-09-14T06:30:02.468Z,0.80
2022-09-14T06:33:05.947Z,1.20
2022-09-14T06:36:12.838Z,1.40
2022-09-14T06:39:15.981Z,0.90
2022-09-14T06:42:18.848Z,1.10
2022-09-14T06:45:21.826Z,1.50
2022-09-14T06:48:25.412Z,1.30
2022-09-14T06:51:34.256Z,1.20
2022-09-14T06:54:37.192Z,1.10
2022-09-14T06:57:43.028Z,1.20
2022-09-14T07:00:46.201Z,1.10
2022-09-14T07:03:52.655Z,1.40
2022-09-14T07:06:55.629Z,1.00
2022-09-14T07:09:58.497Z,0.90
2022-09-14T07:13:01.570Z,1.60
2022-09-14T07:16:05.977Z,1.40
2022-09-14T07:19:13.960Z,1.00
2022-09-14T07:22:18.364Z,0.80
2022-09-14T07:25:21.648Z,1.10
2022-09-14T07:28:24.616Z,1.70
2022-09-14T07:31:30.199Z,1.10
2022-09-14T07:34:33.430Z,1.30
2022-09-14T07:37:36.297Z,1.30
2022-09-14T07:40:39.885Z,1.30
2022-09-14T07:43:43.162Z,1.30
2022-09-14T07:46:47.068Z,1.00
2022-09-14T07:49:50.029Z,0.80
2022-09-14T07:52:53.008Z,0.70
2022-09-14T07:56:00.244Z,1.30
2022-09-14T07:59:34.375Z,1.10
2022-09-14T08:02:29.439Z,1.10
2022-09-14T08:05:35.497Z,1.20
2022-09-14T08:08:42.039Z,0.70
2022-09-14T08:11:45.331Z,1.00
2022-09-14T08:14:51.430Z,0.90
2022-09-14T08:17:54.335Z,0.90
2022-09-14T08:20:57.411Z,0.70
2022-09-14T08:24:02.683Z,0.90
2022-09-14T08:27:05.607Z,0.80
2022-09-14T08:30:10.448Z,1.00
2022-09-14T08:33:13.905Z,1.00
2022-09-14T08:36:20.044Z,0.60
2022-09-14T08:39:23.016Z,0.60
2022-09-14T08:42:26.808Z,1.10
2022-09-14T08:45:30.167Z,0.90
2022-09-14T08:48:46.875Z,0.70
2022-09-14T08:51:51.279Z,0.80
2022-09-14T08:55:00.017Z,0.70
2022-09-14T08:58:18.614Z,1.10
2022-09-14T09:01:56.597Z,1.60
2022-09-14T09:05:40.800Z,0.40
2022-09-14T09:08:59.435Z,0.60
2022-09-14T09:12:02.908Z,0.70
2022-09-14T09:15:23.270Z,0.80
2022-09-14T09:18:47.678Z,0.60
2022-09-14T09:21:51.636Z,0.50
2022-09-14T09:24:55.831Z,0.70
2022-09-14T09:28:03.615Z,0.70
2022-09-14T09:31:14.523Z,0.70
2022-09-14T09:34:26.139Z,0.60
2022-09-14T09:37:54.206Z,0.60
2022-09-14T09:41:09.433Z,0.50
2022-09-14T09:44:12.824Z,0.70
2022-09-14T09:47:15.931Z,0.80
2022-09-14T09:50:21.178Z,0.60
2022-09-14T09:53:24.799Z,0.60
2022-09-14T09:56:31.110Z,0.70
2022-09-14T09:59:37.209Z,0.50
2022-09-14T10:02:43.086Z,0.50
2022-09-14T10:06:12.608Z,0.40
2022-09-14T10:12:25.259Z,0.60
2022-09-14T10:15:31.143Z,0.40
2022-09-14T10:18:34.274Z,0.50
2022-09-14T10:22:05.078Z,0.70
2022-09-14T10:25:14.808Z,0.40
2022-09-14T10:28:21.841Z,0.60
2022-09-14T10:31:33.023Z,0.60
2022-09-14T10:34:36.104Z,0.60
2022-09-14T10:38:23.609Z,0.70
2022-09-14T10:41:36.494Z,0.30
2022-09-14T10:45:17.327Z,0.50
2022-09-14T10:48:29.508Z,0.60
2022-09-14T10:51:47.630Z,0.70
2022-09-14T10:55:07.498Z,0.40
2022-09-14T10:58:24.795Z,0.60
2022-09-14T11:01:47.972Z,1.00
2022-09-14T11:05:06.648Z,0.50
2022-09-14T11:08:24.457Z,0.80
2022-09-14T11:12:08.156Z,0.50
2022-09-14T11:15:25.562Z,0.50
2022-09-14T11:19:06.818Z,1.10
2022-09-14T11:22:38.185Z,0.60
2022-09-14T11:25:54.805Z,0.60
2022-09-14T11:29:44.751Z,0.70
2022-09-14T11:33:04.668Z,0.70
2022-09-14T11:36:19.859Z,0.70
2022-09-14T11:39:28.255Z,1.00
2022-09-14T11:42:39.312Z,0.80
2022-09-14T11:45:48.941Z,0.80
2022-09-14T11:49:17.597Z,1.00
2022-09-14T11:52:26.060Z,0.90
2022-09-14T11:58:33.372Z,0.70
2022-09-14T12:01:38.617Z,0.80
2022-09-14T12:05:05.012Z,0.70
2022-09-14T12:08:27.974Z,0.80
2022-09-14T12:11:35.008Z,0.80
2022-09-14T12:14:40.881Z,0.80
2022-09-14T12:17:45.538Z,1.20
2022-09-14T12:21:10.437Z,0.80
2022-09-14T12:24:15.635Z,0.90
2022-09-14T12:27:23.414Z,0.70
2022-09-14T12:30:41.845Z,0.60
2022-09-14T12:34:16.236Z,1.30
2022-09-14T12:37:32.011Z,0.80
2022-09-14T12:40:37.889Z,0.90
2022-09-14T12:43:50.734Z,0.80
2022-09-14T12:46:55.241Z,0.90
2022-09-14T12:50:05.762Z,0.80
2022-09-14T12:53:16.025Z,0.80
2022-09-14T12:56:31.889Z,0.70
2022-09-14T12:59:53.591Z,0.70
2022-09-14T13:03:34.421Z,0.80
2022-09-14T13:10:33.069Z,0.70
2022-09-14T13:13:37.477Z,0.80
2022-09-14T13:16:45.019Z,1.10
2022-09-14T13:20:00.359Z,0.90
2022-09-14T13:23:03.784Z,0.70
2022-09-14T13:26:20.576Z,1.00
2022-09-14T13:29:26.823Z,0.80
2022-09-14T13:32:31.325Z,0.90
2022-09-14T13:35:56.477Z,1.20
2022-09-14T13:39:01.752Z,0.70
2022-09-14T13:42:06.547Z,1.00
2022-09-14T13:45:13.313Z,1.00
2022-09-14T13:48:17.807Z,0.60
2022-09-14T13:51:28.888Z,0.80
2022-09-14T13:54:32.148Z,1.00
2022-09-14T13:57:35.424Z,1.20
2022-09-14T14:00:59.429Z,1.00
2022-09-14T14:04:02.574Z,1.10
2022-09-14T14:07:08.796Z,0.90
2022-09-14T14:10:37.561Z,0.90
2022-09-14T14:13:40.861Z,0.80
2022-09-14T14:17:21.572Z,0.90
2022-09-14T14:20:25.155Z,1.00
2022-09-14T14:23:28.035Z,1.20
2022-09-14T14:26:31.511Z,1.20
2022-09-14T14:29:34.792Z,1.20
2022-09-14T14:32:37.867Z,1.10
2022-09-14T14:35:42.063Z,1.20
2022-09-14T14:38:46.365Z,1.10
2022-09-14T14:41:50.345Z,1.10
2022-09-14T14:44:53.333Z,1.00
2022-09-14T14:47:56.746Z,0.80
2022-09-14T14:50:59.688Z,1.00
2022-09-14T14:54:02.559Z,0.70
2022-09-14T14:57:05.430Z,1.30
2022-09-14T15:00:16.198Z,0.90
2022-09-14T15:03:19.716Z,1.10
2022-09-14T15:06:27.236Z,0.90
2022-09-14T15:09:30.209Z,0.80
2022-09-14T15:12:33.753Z,0.90
2022-09-14T15:15:36.683Z,1.10
2022-09-14T15:18:40.355Z,0.70
2022-09-14T15:21:44.051Z,1.00
2022-09-14T15:24:47.219Z,0.90
2022-09-14T15:27:50.600Z,1.30
2022-09-14T15:30:53.882Z,1.00
2022-09-14T15:33:57.060Z,1.00
2022-09-14T15:40:36.448Z,1.10
2022-09-14T15:43:39.465Z,1.20
2022-09-14T15:46:44.790Z,1.20
2022-09-14T15:49:51.756Z,1.10
2022-09-14T15:52:58.061Z,0.90
2022-09-14T15:56:10.595Z,1.00
2022-09-14T15:59:13.460Z,0.90
2022-09-14T16:02:18.003Z,0.90
2022-09-14T16:05:21.045Z,0.90
2022-09-14T16:08:23.920Z,1.30
2022-09-14T16:11:26.781Z,1.10
2022-09-14T16:14:29.652Z,1.40
2022-09-14T16:17:32.625Z,0.80
2022-09-14T16:20:36.124Z,1.00
2022-09-14T16:23:43.171Z,1.20
2022-09-14T16:26:47.681Z,0.90
2022-09-14T16:29:50.654Z,1.30
2022-09-14T16:32:53.726Z,1.20
2022-09-14T16:36:08.795Z,1.10
2022-09-14T16:39:24.028Z,1.00
2022-09-14T16:42:27.309Z,1.10
2022-09-14T16:45:30.307Z,1.30
2022-09-14T16:48:35.224Z,1.30
2022-09-14T16:51:40.065Z,0.70
2022-09-14T16:54:43.901Z,0.90
2022-09-14T16:57:47.188Z,0.80
2022-09-14T17:00:52.228Z,1.00
2022-09-14T17:03:58.746Z,1.00
2022-09-14T17:07:01.934Z,1.30
2022-09-14T17:10:05.414Z,1.30
2022-09-14T17:13:10.529Z,0.90
2022-09-14T17:16:17.150Z,1.20
2022-09-14T17:19:20.337Z,1.20
2022-09-14T17:22:25.802Z,1.20
2022-09-14T17:25:29.057Z,1.00
2022-09-14T17:28:32.870Z,1.30
2022-09-14T17:31:39.286Z,1.10
2022-09-14T17:34:42.598Z,1.40
2022-09-14T17:37:45.569Z,1.60
2022-09-14T17:40:48.747Z,1.10
2022-09-14T17:44:01.875Z,1.50
2022-09-14T17:47:05.230Z,1.60
2022-09-14T17:50:09.034Z,1.50
2022-09-14T17:53:12.522Z,1.40
2022-09-14T17:56:17.864Z,1.40
2022-09-14T17:59:21.323Z,1.30
2022-09-14T18:02:24.288Z,1.60
2022-09-14T18:05:28.182Z,1.70
2022-09-14T18:08:31.155Z,1.40
2022-09-14T18:11:37.093Z,1.60
2022-09-14T18:14:43.032Z,1.70
2022-09-14T18:17:46.622Z,1.50
2022-09-14T18:20:50.101Z,1.70
2022-09-14T18:23:54.610Z,1.70
2022-09-14T18:27:01.481Z,1.60
2022-09-14T18:30:12.326Z,1.60
2022-09-14T18:33:16.943Z,1.80
2022-09-14T18:36:21.547Z,2.30
2022-09-14T18:39:24.621Z,2.00
2022-09-14T18:42:29.003Z,2.50
2022-09-14T18:45:34.623Z,2.40
2022-09-14T18:48:41.001Z,2.40
2022-09-14T18:51:48.610Z,2.20
2022-09-14T18:54:54.215Z,2.80
2022-09-14T18:58:04.487Z,2.70
2022-09-14T19:01:09.003Z,2.50
2022-09-14T19:04:12.954Z,2.30
2022-09-14T19:07:16.282Z,3.10
2022-09-14T19:10:20.794Z,2.90
2022-09-14T19:13:24.902Z,2.20
2022-09-14T19:16:29.328Z,2.10
2022-09-14T19:19:32.526Z,2.20
2022-09-14T19:22:35.700Z,2.30
2022-09-14T19:25:40.307Z,2.40
2022-09-14T19:28:45.043Z,2.40
2022-09-14T19:31:51.807Z,2.00
2022-09-14T19:34:55.378Z,2.00
2022-09-14T19:37:59.056Z,1.80
2022-09-14T19:41:02.566Z,1.80
2022-09-14T19:44:09.304Z,1.60
2022-09-14T19:47:18.116Z,2.10
2022-09-14T19:50:21.482Z,2.20
2022-09-14T19:53:24.458Z,1.80
2022-09-14T19:56:29.893Z,1.90
2022-09-14T19:59:32.901Z,1.80
2022-09-14T20:02:36.008Z,1.80
2022-09-14T20:05:39.380Z,2.10
2022-09-14T20:09:06.423Z,1.40
2022-09-14T20:12:10.436Z,1.20
2022-09-14T20:15:13.841Z,1.50
2022-09-14T20:18:19.003Z,2.00
2022-09-14T20:21:25.303Z,1.90
2022-09-14T20:24:31.164Z,2.00
2022-09-14T20:27:34.110Z,2.10
2022-09-14T20:30:37.291Z,1.50
2022-09-14T20:33:42.950Z,2.10
2022-09-14T20:36:47.480Z,1.70
2022-09-14T20:39:50.656Z,1.40
2022-09-14T20:42:53.575Z,1.80
2022-09-14T20:46:21.149Z,1.70
2022-09-14T20:49:24.287Z,1.80
2022-09-14T20:52:27.568Z,2.30
2022-09-14T20:55:32.921Z,2.20
2022-09-14T20:58:36.300Z,2.30
2022-09-14T21:01:41.776Z,1.90
2022-09-14T21:04:44.879Z,2.00
2022-09-14T21:07:55.562Z,2.40
2022-09-14T21:11:10.675Z,2.30
2022-09-14T21:14:15.798Z,2.40
2022-09-14T21:17:18.871Z,2.30
2022-09-14T21:20:21.846Z,2.30
2022-09-14T21:23:24.894Z,1.60
2022-09-14T21:26:29.812Z,2.00
2022-09-14T21:29:32.912Z,1.70
2022-09-14T21:32:35.808Z,2.00
2022-09-14T21:35:39.171Z,1.80
2022-09-14T21:38:42.920Z,2.00
2022-09-14T21:41:46.537Z,1.80
2022-09-14T21:44:49.715Z,2.30
2022-09-14T21:47:54.235Z,1.80
2022-09-14T21:51:24.721Z,1.80
2022-09-14T21:54:28.804Z,1.50
2022-09-14T21:57:31.793Z,2.10
2022-09-14T22:00:35.345Z,2.00
2022-09-14T22:03:39.271Z,1.50
2022-09-14T22:07:07.420Z,1.40
2022-09-14T22:10:11.748Z,1.50
2022-09-14T22:13:14.698Z,1.40
2022-09-14T22:16:18.530Z,1.60
2022-09-14T22:19:25.040Z,1.80
2022-09-14T22:22:28.315Z,1.50
2022-09-14T22:25:33.646Z,1.60
2022-09-14T22:28:40.299Z,1.50
2022-09-14T22:31:46.581Z,1.50
2022-09-14T22:34:51.053Z,1.70
2022-09-14T22:37:54.131Z,1.70
2022-09-14T22:40:59.271Z,1.60
2022-09-14T22:44:03.854Z,1.60
2022-09-14T22:47:10.317Z,1.60
2022-09-14T22:50:14.079Z,2.10
2022-09-14T22:53:17.791Z,1.60
2022-09-14T22:56:24.154Z,1.70
2022-09-14T22:59:27.221Z,1.90
2022-09-14T23:02:30.093Z,1.80
2022-09-14T23:05:33.977Z,1.40
2022-09-14T23:08:37.465Z,1.40
2022-09-14T23:11:44.825Z,1.60
2022-09-14T23:14:48.114Z,1.90
2022-09-14T23:17:52.207Z,1.80
2022-09-14T23:20:55.288Z,1.80
2022-09-14T23:24:02.398Z,1.50
2022-09-14T23:27:05.427Z,1.30
2022-09-14T23:30:09.197Z,1.90
2022-09-14T23:33:12.189Z,1.70
2022-09-14T23:36:15.264Z,2.00
2022-09-14T23:39:20.384Z,1.70
2022-09-14T23:42:23.255Z,1.80
2022-09-14T23:45:26.235Z,1.40
2022-09-14T23:48:29.096Z,1.60
2022-09-14T23:51:34.030Z,1.60
2022-09-14T23:54:37.192Z,1.70
2022-09-14T23:57:40.271Z,1.80
